Terminal Aerodrome Forecast
Issued by NWS

Home | Current Version | Previous Version | Text Only | Print | Product List | Glossary On
Versions: 1 2 3 4 5 6 7 8 9 10 11 12 13 14 15 16 17 18 19 20 21 22 23
000
FTPA31 PHFO 311700
TAFMDY
TAF
PMDY 311737Z 3118/0118 19015KT P6SM VCSH SCT020 BKN045 BKN120
     FM010000 23012KT P6SM VCSH SCT020 BKN045 BKN120
     FM011000 34008KT P6SM SCT020 BKN045
      AMD LTD TO CLD AND WIND=

USA.gov is the U.S. government's official web portal to all federal, state and local government web resources and services.